Time;durP1;ratioP1;P1;durP2;ratioP2;P2;SDS_P1;SDS_P2;PMS_P1;PMS_P2;Temp;Humidity;BMP_temperature;BMP_pressure;BME280_temperature;BME280_humidity;BME280_pressure;Samples;Min_cycle;Max_cycle;Signal;HPM_P1;HPM_P2
2021/07/03 00:02:13;;;;;;;6.35;4.65;;;13.20;99.90;;;;;;5032535;28;20045;-82
2021/07/03 00:04:42;;;;;;;8.05;5.88;;;13.10;99.90;;;;;;5032550;28;20064;-82
2021/07/03 00:07:10;;;;;;;9.32;5.28;;;13.00;99.90;;;;;;5032757;28;20056;-82
2021/07/03 00:09:38;;;;;;;7.97;4.00;;;13.00;99.90;;;;;;5030278;28;20052;-81
2021/07/03 00:12:07;;;;;;;7.82;5.18;;;13.00;99.90;;;;;;5032234;28;20052;-82
2021/07/03 00:14:36;;;;;;;8.65;6.18;;;12.90;99.90;;;;;;5028727;28;20046;-81
2021/07/03 00:17:05;;;;;;;8.30;5.63;;;12.90;99.90;;;;;;5012121;28;20057;-81
2021/07/03 00:19:33;;;;;;;10.02;6.80;;;12.80;99.90;;;;;;4993115;28;20498;-82
2021/07/03 00:22:01;;;;;;;11.05;6.47;;;12.80;99.90;;;;;;4992140;28;20050;-81
2021/07/03 00:24:28;;;;;;;10.93;8.75;;;12.70;99.90;;;;;;4990530;28;20530;-82
2021/07/03 00:26:59;;;;;;;15.20;8.18;;;12.60;99.90;;;;;;4990857;28;20050;-82
2021/07/03 00:29:27;;;;;;;11.63;7.45;;;12.60;99.90;;;;;;4991293;28;20399;-82
2021/07/03 00:32:01;;;;;;;10.65;5.63;;;12.60;99.90;;;;;;4991772;28;20061;-82
2021/07/03 00:34:29;;;;;;;8.45;6.18;;;12.60;99.90;;;;;;4992211;28;20046;-82
2021/07/03 00:36:58;;;;;;;12.55;8.63;;;12.50;99.90;;;;;;4995927;28;20086;-82
2021/07/03 00:39:28;;;;;;;7.28;5.97;;;12.50;99.90;;;;;;4994353;28;20447;-82
2021/07/03 00:41:57;;;;;;;17.13;6.97;;;12.50;99.90;;;;;;5011311;28;20057;-79
2021/07/03 00:44:30;;;;;;;7.43;5.35;;;12.40;99.90;;;;;;5010979;28;20042;-79
2021/07/03 00:47:01;;;;;;;7.95;5.65;;;12.30;99.90;;;;;;5009502;28;20782;-82
2021/07/03 00:49:31;;;;;;;7.78;6.90;;;12.30;99.90;;;;;;5011217;28;20038;-82
2021/07/03 00:52:02;;;;;;;6.70;4.70;;;12.30;99.90;;;;;;5011654;28;20038;-82
2021/07/03 00:54:33;;;;;;;11.82;7.35;;;12.30;99.90;;;;;;4977343;28;20403;-81
2021/07/03 00:57:03;;;;;;;12.93;7.33;;;12.20;99.90;;;;;;5009753;28;20038;-82
2021/07/03 00:59:44;;;;;;;9.35;6.40;;;12.20;99.90;;;;;;5011040;28;20041;-82
2021/07/03 01:02:18;;;;;;;9.68;6.13;;;12.20;99.90;;;;;;5010305;28;20045;-82
2021/07/03 01:04:48;;;;;;;8.85;7.53;;;12.10;99.90;;;;;;5011471;28;20493;-82
2021/07/03 01:07:21;;;;;;;8.70;6.05;;;12.00;99.90;;;;;;5011575;28;20054;-82
2021/07/03 01:09:50;;;;;;;8.18;6.40;;;12.00;99.90;;;;;;5009856;28;20533;-82
2021/07/03 01:12:18;;;;;;;8.45;5.30;;;12.00;99.90;;;;;;5011144;28;20060;-81
2021/07/03 01:14:49;;;;;;;7.68;5.15;;;12.00;99.90;;;;;;5005153;28;20053;-82
2021/07/03 01:17:20;;;;;;;4.95;3.97;;;12.00;99.90;;;;;;4973404;28;20054;-82
2021/07/03 01:19:50;;;;;;;8.07;6.13;;;12.00;99.90;;;;;;4991178;28;20042;-82
2021/07/03 01:22:19;;;;;;;6.43;5.78;;;11.90;99.90;;;;;;4973818;28;20054;-82
2021/07/03 01:24:48;;;;;;;9.05;6.00;;;11.80;99.90;;;;;;4973473;28;20637;-82
2021/07/03 01:27:17;;;;;;;11.90;6.32;;;11.70;99.90;;;;;;4975032;28;20384;-82
2021/07/03 01:29:46;;;;;;;10.05;6.20;;;11.70;99.90;;;;;;4989235;28;20403;-82
2021/07/03 01:32:15;;;;;;;10.50;7.15;;;11.70;99.90;;;;;;4990032;28;20042;-81
2021/07/03 01:34:44;;;;;;;11.18;8.25;;;11.70;99.90;;;;;;4988687;28;20053;-82
2021/07/03 01:37:29;;;;;;;7.25;6.18;;;11.70;99.90;;;;;;4998865;28;20058;-82
2021/07/03 01:39:58;;;;;;;9.32;7.47;;;11.70;99.90;;;;;;5011373;28;20057;-82
2021/07/03 01:42:28;;;;;;;10.75;8.13;;;11.70;99.90;;;;;;4993563;28;20042;-79
2021/07/03 01:44:59;;;;;;;9.85;7.57;;;11.70;99.90;;;;;;5009534;28;20045;-79
2021/07/03 01:47:27;;;;;;;10.13;6.95;;;11.70;99.90;;;;;;5009655;28;20395;-79
2021/07/03 01:49:56;;;;;;;10.52;8.07;;;11.70;99.90;;;;;;5008022;28;20052;-79
2021/07/03 01:52:23;;;;;;;9.18;7.38;;;11.70;99.90;;;;;;5008616;28;20049;-82
2021/07/03 01:54:57;;;;;;;13.27;10.43;;;11.80;99.90;;;;;;4977051;28;20503;-82
2021/07/03 01:57:26;;;;;;;20.35;9.57;;;11.70;99.90;;;;;;5008721;28;20050;-82
2021/07/03 02:00:11;;;;;;;8.65;7.28;;;11.80;99.90;;;;;;5009872;28;20049;-82
2021/07/03 02:02:49;;;;;;;6.28;5.68;;;11.80;99.90;;;;;;5008990;28;20049;-81
2021/07/03 02:05:32;;;;;;;9.23;7.15;;;11.80;99.90;;;;;;5010728;28;20045;-82
2021/07/03 02:08:02;;;;;;;7.65;6.85;;;11.80;99.90;;;;;;5010543;28;20053;-82
2021/07/03 02:10:30;;;;;;;10.52;6.72;;;11.80;99.90;;;;;;5009313;28;20522;-82
2021/07/03 02:12:59;;;;;;;10.00;7.00;;;11.80;99.90;;;;;;5019045;28;20046;-82
2021/07/03 02:15:32;;;;;;;8.00;6.57;;;11.80;99.90;;;;;;5029614;28;20057;-82
2021/07/03 02:18:09;;;;;;;8.18;5.93;;;11.80;99.90;;;;;;5013207;28;20050;-82
2021/07/03 02:20:38;;;;;;;10.73;6.45;;;11.80;99.90;;;;;;4995045;28;20391;-82
2021/07/03 02:23:13;;;;;;;9.30;7.63;;;11.80;99.90;;;;;;5008831;28;20052;-82
2021/07/03 02:25:46;;;;;;;10.80;6.50;;;11.90;99.90;;;;;;5009314;28;20046;-82
2021/07/03 02:28:19;;;;;;;8.70;6.55;;;11.90;99.90;;;;;;5011064;28;20041;-82
2021/07/03 02:30:54;;;;;;;10.52;7.20;;;11.80;99.90;;;;;;5014029;28;20503;-82
2021/07/03 02:33:22;;;;;;;19.30;6.55;;;11.80;99.90;;;;;;5013596;28;20054;-82
2021/07/03 02:35:53;;;;;;;9.38;6.28;;;11.80;99.90;;;;;;5013255;28;20050;-81
2021/07/03 02:38:24;;;;;;;8.05;6.28;;;11.80;99.90;;;;;;5011796;28;20043;-81
2021/07/03 02:40:53;;;;;;;9.27;6.40;;;11.70;99.90;;;;;;4980239;28;20045;-81
2021/07/03 02:43:22;;;;;;;9.50;6.43;;;11.60;99.90;;;;;;5013129;28;20045;-81
2021/07/03 02:45:54;;;;;;;11.00;6.35;;;11.50;99.90;;;;;;5012243;28;20058;-81
2021/07/03 02:48:23;;;;;;;10.43;6.18;;;11.60;99.90;;;;;;5012372;28;20053;-81
2021/07/03 02:50:52;;;;;;;7.50;6.13;;;11.60;99.90;;;;;;5002453;28;20052;-81
2021/07/03 02:53:21;;;;;;;7.20;6.47;;;11.50;99.90;;;;;;5014794;28;20056;-81
2021/07/03 02:55:50;;;;;;;11.20;6.45;;;11.50;99.90;;;;;;5027949;28;20054;-81
2021/07/03 02:58:17;;;;;;;9.18;6.45;;;11.50;99.90;;;;;;5024081;28;20057;-81
2021/07/03 03:00:45;;;;;;;8.80;6.15;;;11.40;99.90;;;;;;5031833;28;20045;-81
2021/07/03 03:03:14;;;;;;;7.65;5.93;;;11.30;99.90;;;;;;5032574;28;20045;-81
2021/07/03 03:05:42;;;;;;;12.88;7.28;;;11.30;99.90;;;;;;5033514;28;20750;-81
2021/07/03 03:08:11;;;;;;;12.85;6.22;;;11.30;99.90;;;;;;5032596;28;20046;-81
2021/07/03 03:10:41;;;;;;;14.18;5.95;;;11.20;99.90;;;;;;5030137;28;20037;-82
2021/07/03 03:13:09;;;;;;;9.07;7.22;;;11.20;99.90;;;;;;5030801;28;20049;-81
2021/07/03 03:15:37;;;;;;;11.90;6.38;;;11.20;99.90;;;;;;5015630;28;20057;-81
2021/07/03 03:18:06;;;;;;;8.95;6.18;;;11.20;99.90;;;;;;5031452;28;20050;-81
2021/07/03 03:20:37;;;;;;;9.00;6.72;;;11.20;99.90;;;;;;5031763;28;20069;-81
2021/07/03 03:23:07;;;;;;;8.73;6.60;;;11.20;99.90;;;;;;5014881;28;20053;-81
2021/07/03 03:25:35;;;;;;;8.73;6.55;;;11.20;99.90;;;;;;5032685;28;20050;-81
2021/07/03 03:28:04;;;;;;;7.53;5.85;;;11.20;99.90;;;;;;5014168;28;20042;-81
2021/07/03 03:30:32;;;;;;;10.82;6.55;;;11.20;99.90;;;;;;5012721;28;20046;-81
2021/07/03 03:33:05;;;;;;;10.85;6.72;;;11.20;99.90;;;;;;5006903;28;20069;-81
2021/07/03 03:35:34;;;;;;;7.30;5.70;;;11.30;99.90;;;;;;4992536;28;20062;-81
2021/07/03 03:38:06;;;;;;;7.72;5.97;;;11.40;99.90;;;;;;5007509;28;20046;-81
2021/07/03 03:40:34;;;;;;;9.85;6.20;;;11.40;99.90;;;;;;5012240;28;20072;-81
2021/07/03 03:43:03;;;;;;;10.18;5.38;;;11.40;99.90;;;;;;5012927;28;20046;-81
2021/07/03 03:45:36;;;;;;;7.28;4.80;;;11.30;99.90;;;;;;4995825;28;20042;-81
2021/07/03 03:48:05;;;;;;;8.75;5.50;;;11.30;99.90;;;;;;5011816;28;20052;-81
2021/07/03 03:50:39;;;;;;;9.98;5.38;;;11.30;99.90;;;;;;5011451;28;20053;-82
2021/07/03 03:53:08;;;;;;;7.55;6.75;;;11.30;99.90;;;;;;5010965;28;20053;-81
2021/07/03 03:55:36;;;;;;;9.82;7.03;;;11.30;99.90;;;;;;5011768;28;20054;-82
2021/07/03 03:58:06;;;;;;;8.80;6.03;;;11.30;99.90;;;;;;5028400;28;20049;-81
2021/07/03 04:00:36;;;;;;;8.27;5.80;;;11.30;99.90;;;;;;5030785;28;20060;-81
2021/07/03 04:03:05;;;;;;;9.05;6.03;;;11.30;99.90;;;;;;5014601;28;20053;-81
2021/07/03 04:05:38;;;;;;;7.30;5.53;;;11.30;99.90;;;;;;5032028;28;20491;-82
2021/07/03 04:08:06;;;;;;;8.73;5.18;;;11.30;99.90;;;;;;5032223;28;20513;-81
2021/07/03 04:10:35;;;;;;;10.85;7.18;;;11.40;99.90;;;;;;5013958;28;20060;-82
2021/07/03 04:13:03;;;;;;;24.08;8.73;;;11.40;99.90;;;;;;5014394;28;20061;-82
2021/07/03 04:15:31;;;;;;;8.20;5.22;;;11.50;99.90;;;;;;5032669;28;20053;-82
2021/07/03 04:17:59;;;;;;;8.70;5.93;;;11.50;99.90;;;;;;5017624;28;20059;-81
2021/07/03 04:20:26;;;;;;;6.95;5.13;;;11.60;99.90;;;;;;4991280;28;20054;-81
2021/07/03 04:22:54;;;;;;;6.78;5.75;;;11.60;99.90;;;;;;5006346;28;20054;-81
2021/07/03 04:25:22;;;;;;;7.20;5.22;;;11.70;99.90;;;;;;4991094;28;20046;-82
2021/07/03 04:27:50;;;;;;;5.93;5.40;;;11.60;99.90;;;;;;5022319;28;20048;-81
2021/07/03 04:30:18;;;;;;;7.28;4.80;;;11.70;99.90;;;;;;5029972;28;20060;-81
2021/07/03 04:32:47;;;;;;;8.43;6.60;;;11.80;99.90;;;;;;5030193;28;20060;-82
2021/07/03 04:35:16;;;;;;;12.02;6.03;;;11.80;99.90;;;;;;5030802;28;20042;-81
2021/07/03 04:37:44;;;;;;;6.57;5.60;;;11.90;99.90;;;;;;5019270;28;20049;-82
2021/07/03 04:40:13;;;;;;;8.98;5.38;;;12.10;99.90;;;;;;4993972;28;20061;-82
2021/07/03 04:42:45;;;;;;;7.63;6.57;;;12.20;99.90;;;;;;5011503;28;20052;-82
2021/07/03 04:45:17;;;;;;;6.57;5.15;;;12.40;99.90;;;;;;5011472;28;20092;-82
2021/07/03 04:47:45;;;;;;;8.05;6.43;;;12.50;99.90;;;;;;4994682;28;20149;-82
2021/07/03 04:50:14;;;;;;;7.80;6.03;;;12.70;99.90;;;;;;4993474;28;20042;-81
2021/07/03 04:52:42;;;;;;;9.10;5.50;;;12.90;99.90;;;;;;5010932;28;20565;-81
2021/07/03 04:55:10;;;;;;;5.85;4.75;;;13.00;99.90;;;;;;5009705;28;20053;-82
2021/07/03 04:57:38;;;;;;;6.32;4.53;;;13.10;99.90;;;;;;5010157;28;20058;-82
2021/07/03 05:00:07;;;;;;;6.72;5.57;;;13.30;99.90;;;;;;5010196;28;20042;-82
2021/07/03 05:02:35;;;;;;;6.70;4.25;;;13.50;99.90;;;;;;5011442;28;20038;-82
2021/07/03 05:05:04;;;;;;;6.70;5.00;;;13.60;99.90;;;;;;5011229;28;20038;-82
2021/07/03 05:07:32;;;;;;;7.10;4.80;;;13.60;99.90;;;;;;5010252;28;20050;-82
2021/07/03 05:10:11;;;;;;;5.30;4.15;;;13.70;99.90;;;;;;4978260;28;20057;-82
2021/07/03 05:12:40;;;;;;;6.22;4.10;;;13.80;99.90;;;;;;4993789;28;20061;-82
2021/07/03 05:15:09;;;;;;;5.35;4.07;;;13.90;99.90;;;;;;4994188;28;20050;-82
2021/07/03 05:17:37;;;;;;;6.55;4.95;;;13.90;99.90;;;;;;5009712;28;20049;-82
2021/07/03 05:20:07;;;;;;;4.93;4.43;;;14.00;99.90;;;;;;5010047;28;20046;-82
2021/07/03 05:22:35;;;;;;;5.53;3.78;;;14.00;99.90;;;;;;5008633;28;20053;-82
2021/07/03 05:25:04;;;;;;;5.72;5.22;;;14.10;99.90;;;;;;5009142;28;20050;-82
2021/07/03 05:27:33;;;;;;;5.10;4.60;;;14.20;99.90;;;;;;4993723;28;20046;-82
2021/07/03 05:30:00;;;;;;;7.03;4.78;;;14.20;99.90;;;;;;4993506;28;20041;-82
2021/07/03 05:32:28;;;;;;;5.85;4.55;;;14.30;99.90;;;;;;4993721;28;20042;-82
2021/07/03 05:34:56;;;;;;;5.25;4.53;;;14.40;99.90;;;;;;4990739;28;20042;-82
2021/07/03 05:37:24;;;;;;;5.78;4.30;;;14.40;99.90;;;;;;5014799;28;20558;-82
2021/07/03 05:39:51;;;;;;;5.05;4.53;;;14.50;99.90;;;;;;5010844;28;20045;-82
2021/07/03 05:42:19;;;;;;;7.75;5.15;;;14.50;99.90;;;;;;5011059;28;20061;-82
2021/07/03 05:44:47;;;;;;;6.18;4.45;;;14.60;99.90;;;;;;5010819;28;20057;-82
2021/07/03 05:47:15;;;;;;;6.72;4.38;;;14.70;99.90;;;;;;5011316;28;20395;-82
2021/07/03 05:49:44;;;;;;;7.38;5.30;;;14.80;99.90;;;;;;5010470;28;20046;-82
2021/07/03 05:52:11;;;;;;;7.55;5.97;;;14.90;99.90;;;;;;5010789;28;20056;-82
2021/07/03 05:54:39;;;;;;;5.85;4.38;;;15.10;99.90;;;;;;5010247;28;20045;-82
2021/07/03 05:57:07;;;;;;;7.30;5.50;;;15.20;99.90;;;;;;5010663;28;20046;-82
2021/07/03 05:59:35;;;;;;;7.45;5.82;;;15.30;99.90;;;;;;5011415;28;20053;-82
2021/07/03 06:02:03;;;;;;;7.35;5.32;;;15.40;99.90;;;;;;5011228;28;20041;-82
2021/07/03 06:04:31;;;;;;;7.78;5.57;;;15.40;99.90;;;;;;5015019;28;20053;-82
2021/07/03 06:06:58;;;;;;;6.88;5.25;;;15.50;99.90;;;;;;5027512;28;20041;-82
2021/07/03 06:09:26;;;;;;;9.52;5.93;;;15.80;99.90;;;;;;5032569;28;20406;-82
2021/07/03 06:11:54;;;;;;;9.25;5.60;;;16.00;99.90;;;;;;5034604;28;20386;-82
2021/07/03 06:14:22;;;;;;;6.40;5.28;;;16.20;99.90;;;;;;5021495;28;20045;-82
2021/07/03 06:16:50;;;;;;;7.55;5.13;;;16.30;99.90;;;;;;5013243;28;20061;-82
2021/07/03 06:19:20;;;;;;;7.78;5.97;;;16.50;99.90;;;;;;4997103;28;20475;-82
2021/07/03 06:21:49;;;;;;;7.70;5.50;;;16.60;99.90;;;;;;5013823;28;20042;-82
2021/07/03 06:24:16;;;;;;;8.02;5.57;;;16.70;99.90;;;;;;5012971;28;20053;-82
2021/07/03 06:26:44;;;;;;;6.75;3.90;;;16.80;99.90;;;;;;5014413;28;20312;-82
2021/07/03 06:29:12;;;;;;;8.65;5.70;;;16.90;99.90;;;;;;4996265;28;20521;-82
2021/07/03 06:31:40;;;;;;;9.55;5.45;;;16.90;99.90;;;;;;5014799;28;20058;-82
2021/07/03 06:34:08;;;;;;;9.55;4.90;;;17.00;99.90;;;;;;5013888;28;20050;-82
2021/07/03 06:36:36;;;;;;;6.35;4.85;;;17.20;99.90;;;;;;5013991;28;20046;-83
2021/07/03 06:39:05;;;;;;;7.07;4.30;;;17.40;99.90;;;;;;5012635;28;20072;-82
2021/07/03 06:41:33;;;;;;;7.03;5.93;;;17.50;99.90;;;;;;5010539;28;20404;-82
2021/07/03 06:44:01;;;;;;;6.07;4.22;;;17.50;99.90;;;;;;5013205;28;20474;-82
2021/07/03 06:46:29;;;;;;;7.43;5.50;;;17.50;99.90;;;;;;5012807;28;20418;-88
2021/07/03 06:48:57;;;;;;;6.80;6.15;;;17.50;99.90;;;;;;4978478;28;20069;-88
2021/07/03 06:51:26;;;;;;;7.45;5.05;;;17.60;99.90;;;;;;4979084;28;20236;-89
2021/07/03 06:53:56;;;;;;;9.35;6.38;;;17.50;99.90;;;;;;5009754;28;20046;-89
2021/07/03 06:56:24;;;;;;;6.82;5.82;;;17.50;99.90;;;;;;5000744;28;20050;-88
2021/07/03 06:58:52;;;;;;;7.60;4.68;;;17.50;99.90;;;;;;4992831;28;20042;-87
2021/07/03 07:01:20;;;;;;;7.20;4.45;;;17.60;99.90;;;;;;4990407;28;20380;-87
2021/07/03 07:03:48;;;;;;;8.07;5.82;;;17.70;99.90;;;;;;4974939;28;20495;-87
2021/07/03 07:06:15;;;;;;;8.77;4.93;;;17.90;99.90;;;;;;4991547;28;20053;-86
2021/07/03 07:08:43;;;;;;;5.60;4.78;;;17.90;99.90;;;;;;4972822;28;20058;-86
2021/07/03 07:11:11;;;;;;;11.32;6.07;;;18.00;99.90;;;;;;5009626;28;20050;-87
2021/07/03 07:13:39;;;;;;;7.57;6.75;;;18.00;99.90;;;;;;5011390;28;20057;-85
2021/07/03 07:16:07;;;;;;;31.67;6.50;;;18.20;99.90;;;;;;4994857;28;20055;-87
2021/07/03 07:18:35;;;;;;;9.48;6.30;;;18.50;99.90;;;;;;5010330;28;20601;-85
2021/07/03 07:21:03;;;;;;;9.02;7.22;;;18.50;99.90;;;;;;5008762;28;20483;-87
2021/07/03 07:23:31;;;;;;;5.32;4.63;;;18.30;99.90;;;;;;5007691;28;20550;-87
2021/07/03 07:25:59;;;;;;;6.50;5.10;;;18.40;99.90;;;;;;5009839;28;20042;-86
2021/07/03 07:28:27;;;;;;;9.10;5.90;;;18.90;99.90;;;;;;5009851;28;20046;-86
2021/07/03 07:30:55;;;;;;;9.00;6.65;;;19.60;99.90;;;;;;5007529;28;20041;-86
2021/07/03 07:33:23;;;;;;;6.82;4.97;;;19.90;99.90;;;;;;5002612;28;20046;-87
2021/07/03 07:35:51;;;;;;;6.75;3.47;;;19.80;99.90;;;;;;4973785;28;20074;-86
2021/07/03 07:38:19;;;;;;;5.10;4.47;;;19.60;99.90;;;;;;5004559;28;20038;-88
2021/07/03 07:40:46;;;;;;;6.57;5.03;;;19.30;99.90;;;;;;4993166;28;20046;-87
2021/07/03 07:43:15;;;;;;;7.10;4.50;;;19.40;99.90;;;;;;4982285;28;20295;-81
2021/07/03 07:45:44;;;;;;;8.55;5.32;;;19.40;99.90;;;;;;4996975;28;20518;-88
2021/07/03 07:48:12;;;;;;;4.90;3.33;;;19.50;99.90;;;;;;4973056;28;20042;-88
2021/07/03 07:50:40;;;;;;;6.68;4.07;;;19.60;99.90;;;;;;4985915;28;20049;-86
2021/07/03 07:53:08;;;;;;;7.57;4.05;;;19.70;99.90;;;;;;4990730;28;20055;-86
2021/07/03 07:55:36;;;;;;;5.93;4.85;;;19.80;99.90;;;;;;4992962;28;20395;-88
2021/07/03 07:58:04;;;;;;;16.35;6.10;;;19.90;99.90;;;;;;4975356;28;20042;-84
2021/07/03 08:00:33;;;;;;;6.63;4.53;;;19.50;99.90;;;;;;5011184;28;20060;-87
2021/07/03 08:03:01;;;;;;;7.57;5.53;;;19.50;99.90;;;;;;5030399;28;20049;-84
2021/07/03 08:05:29;;;;;;;10.18;5.90;;;19.50;99.90;;;;;;5013338;28;20045;-85
2021/07/03 08:07:57;;;;;;;5.32;4.13;;;19.70;99.90;;;;;;5030168;28;20061;-82
2021/07/03 08:10:27;;;;;;;8.10;6.07;;;19.70;99.90;;;;;;5030564;28;20064;-83
2021/07/03 08:12:55;;;;;;;7.33;4.87;;;19.80;99.90;;;;;;5032055;28;20056;-84
2021/07/03 08:15:23;;;;;;;5.57;5.00;;;19.90;99.90;;;;;;5032210;28;20475;-84
2021/07/03 08:17:51;;;;;;;9.10;4.78;;;19.60;99.90;;;;;;5025309;28;20125;-83
2021/07/03 08:20:22;;;;;;;7.05;5.43;;;19.60;99.90;;;;;;5012648;28;20506;-80
2021/07/03 08:22:51;;;;;;;5.57;4.72;;;19.70;99.90;;;;;;5011696;28;20928;-83
2021/07/03 08:25:21;;;;;;;8.05;6.95;;;19.60;99.90;;;;;;5042562;28;20046;-81
2021/07/03 08:27:50;;;;;;;7.68;6.28;;;19.30;99.90;;;;;;5012162;28;20042;-80
2021/07/03 08:30:20;;;;;;;8.27;6.50;;;19.20;99.90;;;;;;5020097;28;20052;-82
2021/07/03 08:32:48;;;;;;;9.10;6.85;;;19.30;99.90;;;;;;5031563;28;20046;-80
2021/07/03 08:35:16;;;;;;;7.00;5.32;;;19.30;99.90;;;;;;5032162;28;20056;-81
2021/07/03 08:37:44;;;;;;;10.52;7.03;;;19.40;99.90;;;;;;5017835;28;20786;-81
2021/07/03 08:40:14;;;;;;;9.32;6.57;;;19.60;99.90;;;;;;5011876;28;20050;-83
2021/07/03 08:42:42;;;;;;;7.60;5.72;;;19.50;99.90;;;;;;5011625;28;20046;-80
2021/07/03 08:45:12;;;;;;;8.48;7.30;;;19.60;99.90;;;;;;5011393;28;20061;-82
2021/07/03 08:47:41;;;;;;;11.13;8.13;;;19.80;99.90;;;;;;5010657;28;20042;-83
2021/07/03 08:50:11;;;;;;;7.88;6.03;;;19.90;99.90;;;;;;5011114;28;20045;-85
2021/07/03 08:52:39;;;;;;;7.85;5.93;;;19.70;99.90;;;;;;5010084;28;20486;-82
2021/07/03 08:55:22;;;;;;;7.05;5.40;;;19.60;99.90;;;;;;4993492;28;20054;-86
2021/07/03 08:57:55;;;;;;;13.70;5.97;;;19.90;99.90;;;;;;4991997;28;20139;-81
2021/07/03 09:00:34;;;;;;;8.07;6.40;;;20.10;99.90;;;;;;5007974;28;20060;-83
2021/07/03 09:03:17;;;;;;;6.97;5.47;;;20.10;99.90;;;;;;5029600;28;20053;-83
2021/07/03 09:05:51;;;;;;;7.65;5.97;;;19.90;99.90;;;;;;5030012;28;20050;-79
2021/07/03 09:08:20;;;;;;;7.70;5.43;;;19.80;99.90;;;;;;5028251;28;20050;-80
2021/07/03 09:10:48;;;;;;;7.10;5.85;;;19.90;99.90;;;;;;5013046;28;20517;-78
2021/07/03 09:13:19;;;;;;;6.32;4.53;;;20.20;99.90;;;;;;5028969;28;20061;-77
2021/07/03 09:15:46;;;;;;;6.88;5.80;;;20.20;99.90;;;;;;5016531;28;20038;-77
2021/07/03 09:18:16;;;;;;;7.60;5.28;;;20.40;99.90;;;;;;5030798;28;20045;-78
2021/07/03 09:20:54;;;;;;;8.18;5.97;;;20.50;99.90;;;;;;5030952;28;20049;-77
2021/07/03 09:23:30;;;;;;;8.15;4.60;;;20.70;99.90;;;;;;5030227;28;20045;-78
2021/07/03 09:26:03;;;;;;;7.68;5.32;;;20.60;99.90;;;;;;5012878;28;20072;-81
2021/07/03 09:28:40;;;;;;;9.50;5.57;;;20.50;99.90;;;;;;5012730;28;20545;-79
2021/07/03 09:31:10;;;;;;;9.35;5.75;;;20.60;99.90;;;;;;5013811;28;20062;-78
2021/07/03 09:33:40;;;;;;;6.57;5.17;;;20.50;99.90;;;;;;5004426;28;20054;-77
2021/07/03 09:36:09;;;;;;;7.50;4.90;;;20.50;99.90;;;;;;5011111;28;20072;-77
2021/07/03 09:38:40;;;;;;;7.53;4.18;;;20.60;99.90;;;;;;5007645;28;20284;-80
2021/07/03 09:41:11;;;;;;;12.85;5.70;;;20.60;99.90;;;;;;5010821;28;20038;-79
2021/07/03 09:43:58;;;;;;;;;;;20.70;99.90;;;;;;5011906;28;20045;-85
2021/07/03 09:46:31;;;;;;;7.47;4.85;;;20.80;99.90;;;;;;5010834;28;19929;-86
2021/07/03 09:49:11;;;;;;;6.88;3.80;;;20.80;99.90;;;;;;5008684;28;20084;-83
2021/07/03 09:51:49;;;;;;;6.57;5.40;;;20.70;99.90;;;;;;5010922;28;20057;-81
2021/07/03 09:54:18;;;;;;;6.50;5.32;;;20.80;99.90;;;;;;5009408;28;20570;-81
2021/07/03 09:56:47;;;;;;;5.05;3.85;;;20.90;99.90;;;;;;5009320;28;20363;-78
2021/07/03 09:59:15;;;;;;;6.03;4.78;;;21.00;99.90;;;;;;5011454;28;20053;-87
2021/07/03 10:01:44;;;;;;;9.23;4.40;;;20.60;99.90;;;;;;4988929;28;20051;-87
2021/07/03 10:04:12;;;;;;;12.95;4.88;;;20.30;99.90;;;;;;4974636;28;20081;-82
2021/07/03 10:06:50;;;;;;;7.40;5.80;;;20.50;99.90;;;;;;4989147;28;20061;-78
2021/07/03 10:09:24;;;;;;;7.07;5.15;;;20.70;99.90;;;;;;5002566;28;20038;-81
2021/07/03 10:11:57;;;;;;;10.38;4.43;;;20.70;99.90;;;;;;5007732;28;20050;-84
2021/07/03 10:14:26;;;;;;;5.13;4.53;;;20.60;99.90;;;;;;4993564;28;20045;-84
2021/07/03 10:17:04;;;;;;;6.47;5.15;;;20.50;99.90;;;;;;5008786;28;20402;-88
2021/07/03 10:19:34;;;;;;;7.53;5.53;;;20.40;99.90;;;;;;4989977;28;20696;-88
2021/07/03 10:22:26;;;;;;;5.05;3.83;;;20.30;99.90;;;;;;4987767;28;20046;-87
2021/07/03 10:25:11;;;;;;;4.88;4.15;;;20.40;99.90;;;;;;4988799;28;20061;-89
2021/07/03 10:27:53;;;;;;;5.47;4.15;;;20.50;99.90;;;;;;4991177;28;20050;-89
2021/07/03 10:30:27;;;;;;;4.13;3.38;;;20.60;99.90;;;;;;4990572;28;20046;-89
2021/07/03 10:33:01;;;;;;;4.90;4.18;;;20.70;99.90;;;;;;4989076;28;20500;-84
2021/07/03 10:35:40;;;;;;;4.43;3.60;;;20.60;99.90;;;;;;4991101;28;20054;-82
2021/07/03 10:38:37;;;;;;;6.00;4.40;;;20.60;99.90;;;;;;5005172;28;20046;-83
2021/07/03 10:41:20;;;;;;;6.65;4.40;;;20.70;99.90;;;;;;5010325;28;20042;-86
2021/07/03 10:43:58;;;;;;;4.70;4.07;;;20.80;99.90;;;;;;4992098;28;20042;-85
2021/07/03 10:46:33;;;;;;;9.38;3.65;;;20.60;99.90;;;;;;5010433;28;20066;-80
2021/07/03 10:49:31;;;;;;;5.07;4.38;;;20.70;99.90;;;;;;5011156;28;20046;-83
2021/07/03 10:52:16;;;;;;;6.88;4.07;;;20.80;99.90;;;;;;5012294;28;20050;-78
2021/07/03 10:54:47;;;;;;;4.68;3.75;;;20.70;99.90;;;;;;5013326;28;20521;-79
2021/07/03 10:57:26;;;;;;;4.47;3.72;;;20.80;99.90;;;;;;4996088;28;20427;-79
2021/07/03 11:00:03;;;;;;;5.10;3.80;;;20.80;99.90;;;;;;5010409;28;20411;-79
2021/07/03 11:02:31;;;;;;;4.03;3.10;;;20.80;99.90;;;;;;5013338;28;20064;-78
2021/07/03 11:05:11;;;;;;;4.10;3.13;;;20.90;99.90;;;;;;5012665;28;20495;-78
2021/07/03 11:07:39;;;;;;;5.05;3.55;;;20.90;99.70;;;;;;5013300;28;20053;-78
2021/07/03 11:10:10;;;;;;;5.15;3.97;;;20.80;98.80;;;;;;5013125;28;20050;-78
2021/07/03 11:12:50;;;;;;;4.45;3.17;;;20.60;99.90;;;;;;5013374;28;20045;-82
2021/07/03 11:15:21;;;;;;;3.40;3.08;;;20.60;99.30;;;;;;5010747;28;20042;-81
2021/07/03 11:17:48;;;;;;;;;;;20.40;99.90;;;;;;5013768;28;20041;-80
2021/07/03 11:20:34;;;;;;;3.33;2.83;;;20.60;99.90;;;;;;5013529;28;19933;-82
2021/07/03 11:23:04;;;;;;;3.63;2.58;;;20.90;97.90;;;;;;4990150;28;20054;-79
2021/07/03 11:25:39;;;;;;;4.13;3.73;;;21.00;99.90;;;;;;4991785;28;20046;-78
2021/07/03 11:28:19;;;;;;;3.50;3.10;;;21.10;99.90;;;;;;4992617;28;20058;-78
2021/07/03 11:31:01;;;;;;;3.47;2.70;;;21.10;98.80;;;;;;4991717;28;20046;-78
2021/07/03 11:33:34;;;;;;;6.15;3.58;;;21.10;99.90;;;;;;4991519;28;20049;-78
2021/07/03 11:36:05;;;;;;;3.88;3.22;;;21.20;97.60;;;;;;5006126;28;20403;-78
2021/07/03 11:38:34;;;;;;;11.15;3.83;;;21.00;99.90;;;;;;5011716;28;20050;-77
2021/07/03 11:41:04;;;;;;;3.70;2.97;;;21.20;99.90;;;;;;5011941;28;20050;-78
2021/07/03 11:43:33;;;;;;;4.28;3.42;;;21.30;96.10;;;;;;5013362;28;20053;-83
2021/07/03 11:46:04;;;;;;;3.80;2.25;;;21.30;99.10;;;;;;5012639;28;20065;-80
2021/07/03 11:48:32;;;;;;;6.25;3.00;;;21.30;96.60;;;;;;5012797;28;20409;-79
2021/07/03 11:51:02;;;;;;;4.75;3.65;;;21.40;96.80;;;;;;5011747;28;20049;-77
2021/07/03 11:53:31;;;;;;;3.50;2.65;;;21.30;97.00;;;;;;5011270;28;20054;-77
2021/07/03 11:56:01;;;;;;;3.55;3.00;;;21.20;95.90;;;;;;5013279;28;20050;-83
2021/07/03 11:58:32;;;;;;;2.88;2.67;;;21.30;96.40;;;;;;5013324;28;20046;-85
2021/07/03 12:01:08;;;;;;;3.60;2.83;;;21.30;96.70;;;;;;5029572;28;20053;-82
2021/07/03 12:03:38;;;;;;;3.03;2.35;;;21.40;97.80;;;;;;5027467;28;20479;-83
2021/07/03 12:06:08;;;;;;;3.72;3.17;;;21.40;95.50;;;;;;5022279;28;20038;-88
2021/07/03 12:08:43;;;;;;;3.05;2.20;;;21.30;94.00;;;;;;5012938;28;20415;-83
2021/07/03 12:11:12;;;;;;;3.15;2.67;;;21.30;94.80;;;;;;5011953;28;20056;-83
2021/07/03 12:13:46;;;;;;;3.33;2.60;;;21.30;94.00;;;;;;5013943;28;20047;-87
2021/07/03 12:16:16;;;;;;;2.42;2.20;;;21.20;97.50;;;;;;5013353;28;20050;-86
2021/07/03 12:18:51;;;;;;;3.05;2.72;;;21.30;98.00;;;;;;4999907;28;20047;-86
2021/07/03 12:21:26;;;;;;;5.13;3.63;;;21.40;94.60;;;;;;4993867;28;20065;-86
2021/07/03 12:23:58;;;;;;;5.22;4.72;;;21.40;96.30;;;;;;5033036;28;20084;-89
2021/07/03 12:26:28;;;;;;;2.80;2.20;;;21.50;94.70;;;;;;5032231;28;20041;-86
2021/07/03 12:28:58;;;;;;;3.90;3.50;;;21.40;93.80;;;;;;5032586;28;20049;-87
2021/07/03 12:31:27;;;;;;;3.78;3.08;;;21.40;93.90;;;;;;5031756;28;20513;-86
2021/07/03 12:34:07;;;;;;;4.78;2.50;;;21.50;95.00;;;;;;5028206;28;20046;-86
2021/07/03 12:36:37;;;;;;;4.47;3.33;;;21.50;93.80;;;;;;5026576;28;20483;-84
2021/07/03 12:39:12;;;;;;;3.50;3.20;;;21.60;93.50;;;;;;5006707;28;20053;-84
2021/07/03 12:41:43;;;;;;;3.75;2.97;;;21.50;93.30;;;;;;5009477;28;20068;-86
2021/07/03 12:44:11;;;;;;;;;;;21.60;92.70;;;;;;5009477;28;20383;-85
2021/07/03 12:46:41;;;;;;;6.60;2.97;;;21.70;94.80;;;;;;5008538;28;19921;-85
2021/07/03 12:49:10;;;;;;;3.05;2.75;;;21.80;93.90;;;;;;5009583;28;20054;-85
2021/07/03 12:51:41;;;;;;;6.00;3.30;;;21.90;94.30;;;;;;5009340;28;20054;-85
2021/07/03 12:54:10;;;;;;;5.78;3.15;;;22.00;94.40;;;;;;5006797;28;20057;-85
2021/07/03 12:56:38;;;;;;;3.38;3.08;;;22.10;95.10;;;;;;4996820;28;20591;-84
2021/07/03 12:59:08;;;;;;;3.65;3.03;;;22.10;94.20;;;;;;4990796;28;20050;-84
2021/07/03 13:01:39;;;;;;;3.47;3.17;;;22.10;93.60;;;;;;4988451;28;20069;-86
2021/07/03 13:04:08;;;;;;;4.57;2.58;;;22.00;94.00;;;;;;4988175;28;20053;-85